createdAt,value
2023-05-10T00:00:02.953Z,98460.00
2023-05-10T00:01:02.988Z,98461.00
2023-05-10T00:02:03.075Z,98459.00
2023-05-10T00:03:03.054Z,98460.00
2023-05-10T00:04:03.119Z,98456.00
2023-05-10T00:05:03.061Z,98455.00
2023-05-10T00:06:03.103Z,98453.00
2023-05-10T00:07:03.104Z,98458.00
2023-05-10T00:08:03.130Z,98454.00
2023-05-10T00:09:03.205Z,98453.00
2023-05-10T00:10:03.141Z,98453.00
2023-05-10T00:11:03.181Z,98449.00
2023-05-10T00:12:03.161Z,98458.00
2023-05-10T00:13:03.211Z,98450.00
2023-05-10T00:14:03.445Z,98449.00
2023-05-10T00:15:03.213Z,98452.00
2023-05-10T00:16:03.238Z,98450.00
2023-05-10T00:17:03.207Z,98444.00
2023-05-10T00:18:03.262Z,98452.00
2023-05-10T00:19:03.226Z,98450.00
2023-05-10T00:20:03.207Z,98453.00
2023-05-10T00:21:03.233Z,98452.00
2023-05-10T00:22:03.288Z,98447.00
2023-05-10T00:23:03.260Z,98447.00
2023-05-10T00:24:03.286Z,98446.00
2023-05-10T00:25:03.302Z,98441.00
2023-05-10T00:26:03.339Z,98449.00
2023-05-10T00:27:03.347Z,98448.00
2023-05-10T00:28:03.374Z,98444.00
2023-05-10T00:29:03.411Z,98446.00
2023-05-10T00:30:03.403Z,98442.00
2023-05-10T00:31:03.421Z,98441.00
2023-05-10T00:32:03.494Z,98446.00
2023-05-10T00:33:03.451Z,98445.00
2023-05-10T00:34:03.444Z,98442.00
2023-05-10T00:35:03.427Z,98442.00
2023-05-10T00:36:03.458Z,98439.00
2023-05-10T00:37:03.499Z,98443.00
2023-05-10T00:38:03.518Z,98441.00
2023-05-10T00:39:03.526Z,98443.00
2023-05-10T00:40:03.508Z,98439.00
2023-05-10T00:41:03.551Z,98442.00
2023-05-10T00:42:03.565Z,98441.00
2023-05-10T00:43:03.548Z,98443.00
2023-05-10T00:44:03.585Z,98442.00
2023-05-10T00:45:03.600Z,98445.00
2023-05-10T00:46:03.728Z,98441.00
2023-05-10T00:47:03.676Z,98439.00
2023-05-10T00:48:03.706Z,98443.00
2023-05-10T00:49:03.652Z,98441.00
2023-05-10T00:50:03.672Z,98442.00
2023-05-10T00:51:03.704Z,98444.00
2023-05-10T00:52:03.739Z,98442.00
2023-05-10T00:53:03.756Z,98446.00
2023-05-10T00:54:03.786Z,98443.00
2023-05-10T00:55:03.750Z,98442.00
2023-05-10T00:56:03.786Z,98443.00
2023-05-10T00:57:03.789Z,98443.00
2023-05-10T00:58:03.833Z,98443.00
2023-05-10T00:59:03.805Z,98436.00
2023-05-10T01:00:03.836Z,98438.00
2023-05-10T01:01:03.890Z,98439.00
2023-05-10T01:02:03.974Z,98439.00
2023-05-10T01:03:04.005Z,98438.00
2023-05-10T01:04:03.940Z,98440.00
2023-05-10T01:05:04.103Z,98442.00
2023-05-10T01:06:03.960Z,98445.00
2023-05-10T01:07:04.010Z,98442.00
2023-05-10T01:08:03.990Z,98440.00
2023-05-10T01:09:03.969Z,98444.00
2023-05-10T01:10:04.041Z,98446.00
2023-05-10T01:11:03.998Z,98448.00
2023-05-10T01:12:04.074Z,98447.00
2023-05-10T01:13:04.123Z,98448.00
2023-05-10T01:14:04.015Z,98447.00
2023-05-10T01:15:04.069Z,98449.00
2023-05-10T01:16:04.116Z,98452.00
2023-05-10T01:17:04.062Z,98449.00
2023-05-10T01:18:04.142Z,98449.00
2023-05-10T01:19:04.126Z,98451.00
2023-05-10T01:20:04.158Z,98449.00
2023-05-10T01:21:04.174Z,98453.00
2023-05-10T01:22:04.249Z,98453.00
2023-05-10T01:23:04.243Z,98451.00
2023-05-10T01:24:04.232Z,98451.00
2023-05-10T01:25:04.243Z,98453.00
2023-05-10T01:26:04.276Z,98454.00
2023-05-10T01:27:04.245Z,98453.00
2023-05-10T01:28:04.258Z,98455.00
2023-05-10T01:29:04.274Z,98457.00
2023-05-10T01:30:15.309Z,98462.00
2023-05-10T01:31:04.368Z,98455.00
2023-05-10T01:32:04.350Z,98457.00
2023-05-10T01:33:04.414Z,98459.00
2023-05-10T01:34:04.397Z,98458.00
2023-05-10T01:35:04.423Z,98458.00
2023-05-10T01:36:04.733Z,98460.00
2023-05-10T01:37:04.482Z,98457.00
2023-05-10T01:38:04.496Z,98459.00
2023-05-10T01:39:04.508Z,98459.00
2023-05-10T01:40:04.560Z,98460.00
2023-05-10T01:41:04.580Z,98461.00
2023-05-10T01:42:04.617Z,98457.00
2023-05-10T01:43:04.634Z,98460.00
2023-05-10T01:44:04.637Z,98463.00
2023-05-10T01:45:04.643Z,98465.00
2023-05-10T01:46:04.655Z,98469.00
2023-05-10T01:47:04.721Z,98467.00
2023-05-10T01:48:04.776Z,98467.00
2023-05-10T01:49:04.709Z,98468.00
2023-05-10T01:50:04.702Z,98464.00
2023-05-10T01:51:04.720Z,98467.00
2023-05-10T01:52:04.748Z,98466.00
2023-05-10T01:53:04.760Z,98462.00
2023-05-10T01:54:04.793Z,98466.00
2023-05-10T01:55:04.795Z,98467.00
2023-05-10T01:56:04.810Z,98467.00
2023-05-10T01:57:04.840Z,98466.00
2023-05-10T01:58:04.917Z,98467.00
2023-05-10T01:59:04.891Z,98474.00
2023-05-10T02:00:04.894Z,98474.00
2023-05-10T02:01:04.950Z,98472.00
2023-05-10T02:02:04.911Z,98476.00
2023-05-10T02:03:04.946Z,98480.00
2023-05-10T02:04:05.014Z,98481.00
2023-05-10T02:05:04.926Z,98477.00
2023-05-10T02:06:04.909Z,98482.00
2023-05-10T02:07:04.934Z,98482.00
2023-05-10T02:08:04.970Z,98478.00
2023-05-10T02:09:05.002Z,98483.00
2023-05-10T02:10:04.983Z,98484.00
2023-05-10T02:11:04.994Z,98485.00
2023-05-10T02:12:05.021Z,98479.00
2023-05-10T02:13:05.077Z,98487.00
2023-05-10T02:14:05.136Z,98485.00
2023-05-10T02:15:05.086Z,98483.00
2023-05-10T02:16:05.125Z,98485.00
2023-05-10T02:17:05.165Z,98485.00
2023-05-10T02:18:05.119Z,98482.00
2023-05-10T02:19:05.150Z,98484.00
2023-05-10T02:20:05.167Z,98479.00
2023-05-10T02:21:05.206Z,98486.00
2023-05-10T02:22:05.203Z,98487.00
2023-05-10T02:23:05.229Z,98487.00
2023-05-10T02:24:05.260Z,98493.00
2023-05-10T02:25:05.283Z,98486.00
2023-05-10T02:26:05.274Z,98489.00
2023-05-10T02:27:05.300Z,98494.00
2023-05-10T02:28:05.339Z,98493.00
2023-05-10T02:29:05.350Z,98493.00
2023-05-10T02:30:05.411Z,98492.00
2023-05-10T02:31:05.377Z,98496.00
2023-05-10T02:32:05.461Z,98496.00
2023-05-10T02:33:05.493Z,98498.00
2023-05-10T02:34:05.410Z,98494.00
2023-05-10T02:35:05.438Z,98502.00
2023-05-10T02:36:05.426Z,98504.00
2023-05-10T02:37:05.433Z,98498.00
2023-05-10T02:38:05.461Z,98503.00
2023-05-10T02:39:05.489Z,98506.00
2023-05-10T02:40:05.557Z,98506.00
2023-05-10T02:41:05.514Z,98510.00
2023-05-10T02:42:05.529Z,98504.00
2023-05-10T02:43:05.537Z,98503.00
2023-05-10T02:44:05.562Z,98503.00
2023-05-10T02:45:05.622Z,98506.00
2023-05-10T02:46:05.657Z,98509.00
2023-05-10T02:47:05.633Z,98511.00
2023-05-10T02:48:05.669Z,98509.00
2023-05-10T02:49:05.682Z,98511.00
2023-05-10T02:50:05.714Z,98513.00
2023-05-10T02:51:05.703Z,98511.00
2023-05-10T02:52:05.724Z,98512.00
2023-05-10T02:53:05.745Z,98513.00
2023-05-10T02:54:05.744Z,98514.00
2023-05-10T02:55:05.769Z,98513.00
2023-05-10T02:56:05.751Z,98514.00
2023-05-10T02:57:05.766Z,98512.00
2023-05-10T02:58:05.788Z,98522.00
2023-05-10T02:59:05.813Z,98519.00
2023-05-10T03:00:05.871Z,98521.00
2023-05-10T03:01:05.912Z,98522.00
2023-05-10T03:02:05.923Z,98521.00
2023-05-10T03:03:06.005Z,98518.00
2023-05-10T03:04:06.047Z,98520.00
2023-05-10T03:05:06.256Z,98515.00
2023-05-10T03:06:05.953Z,98516.00
2023-05-10T03:07:05.991Z,98521.00
2023-05-10T03:08:06.018Z,98519.00
2023-05-10T03:09:06.044Z,98512.00
2023-05-10T03:10:06.089Z,98519.00
2023-05-10T03:11:06.092Z,98521.00
2023-05-10T03:12:06.128Z,98525.00
2023-05-10T03:13:06.172Z,98517.00
2023-05-10T03:14:06.156Z,98521.00
2023-05-10T03:15:06.159Z,98518.00
2023-05-10T03:16:06.159Z,98518.00
2023-05-10T03:17:06.171Z,98520.00
2023-05-10T03:18:06.267Z,98526.00
2023-05-10T03:19:06.185Z,98521.00
2023-05-10T03:20:06.213Z,98518.00
2023-05-10T03:21:06.207Z,98515.00
2023-05-10T03:22:06.227Z,98516.00
2023-05-10T03:23:06.247Z,98519.00
2023-05-10T03:24:06.282Z,98518.00
2023-05-10T03:25:06.255Z,98520.00
2023-05-10T03:26:06.295Z,98520.00
2023-05-10T03:27:06.319Z,98522.00
2023-05-10T03:28:06.334Z,98521.00
2023-05-10T03:29:06.369Z,98524.00
2023-05-10T03:30:06.349Z,98530.00
2023-05-10T03:31:06.458Z,98527.00
2023-05-10T03:32:06.401Z,98529.00
2023-05-10T03:33:06.455Z,98530.00
2023-05-10T03:34:06.443Z,98534.00
2023-05-10T03:35:06.403Z,98529.00
2023-05-10T03:36:06.425Z,98533.00
2023-05-10T03:37:06.451Z,98534.00
2023-05-10T03:38:06.443Z,98534.00
2023-05-10T03:39:06.463Z,98538.00
2023-05-10T03:40:06.499Z,98536.00
2023-05-10T03:41:06.523Z,98538.00
2023-05-10T03:42:06.516Z,98539.00
2023-05-10T03:43:06.533Z,98541.00
2023-05-10T03:44:06.552Z,98541.00
2023-05-10T03:45:06.563Z,98543.00
2023-05-10T03:46:06.581Z,98541.00
2023-05-10T03:47:06.665Z,98544.00
2023-05-10T03:48:06.600Z,98543.00
2023-05-10T03:49:06.558Z,98542.00
2023-05-10T03:50:06.607Z,98548.00
2023-05-10T03:51:06.591Z,98550.00
2023-05-10T03:52:06.627Z,98551.00
2023-05-10T03:53:06.649Z,98555.00
2023-05-10T03:54:06.645Z,98556.00
2023-05-10T03:55:06.659Z,98551.00
2023-05-10T03:56:06.680Z,98556.00
2023-05-10T03:57:06.717Z,98555.00
2023-05-10T03:58:06.728Z,98560.00
2023-05-10T03:59:06.715Z,98556.00
2023-05-10T04:00:06.728Z,98556.00
2023-05-10T04:01:06.762Z,98561.00
2023-05-10T04:02:06.856Z,98557.00
2023-05-10T04:03:06.872Z,98559.00
2023-05-10T04:04:06.853Z,98563.00
2023-05-10T04:05:06.842Z,98560.00
2023-05-10T04:06:06.944Z,98561.00
2023-05-10T04:07:06.871Z,98562.00
2023-05-10T04:08:06.899Z,98563.00
2023-05-10T04:09:06.876Z,98565.00
2023-05-10T04:10:06.928Z,98565.00
2023-05-10T04:11:06.936Z,98564.00
2023-05-10T04:12:09.001Z,98562.00
2023-05-10T04:13:07.410Z,98565.00
2023-05-10T04:14:06.972Z,98565.00
2023-05-10T04:15:07.002Z,98571.00
2023-05-10T04:16:07.041Z,98566.00
2023-05-10T04:17:07.118Z,98572.00
2023-05-10T04:18:08.845Z,98565.00
2023-05-10T04:19:07.101Z,98567.00
2023-05-10T04:20:07.077Z,98567.00
2023-05-10T04:21:07.115Z,98575.00
2023-05-10T04:22:07.162Z,98574.00
2023-05-10T04:23:07.130Z,98574.00
2023-05-10T04:24:07.166Z,98575.00
2023-05-10T04:25:07.146Z,98577.00
2023-05-10T04:26:07.128Z,98577.00
2023-05-10T04:27:07.161Z,98581.00
2023-05-10T04:28:07.212Z,98582.00
2023-05-10T04:29:07.188Z,98582.00
2023-05-10T04:30:07.174Z,98583.00
2023-05-10T04:31:07.281Z,98581.00
2023-05-10T04:32:07.224Z,98582.00
2023-05-10T04:33:07.295Z,98586.00
2023-05-10T04:34:07.240Z,98586.00
2023-05-10T04:35:07.231Z,98591.00
2023-05-10T04:36:07.250Z,98590.00
2023-05-10T04:37:07.275Z,98593.00
2023-05-10T04:38:07.321Z,98592.00
2023-05-10T04:39:07.301Z,98595.00
2023-05-10T04:40:07.298Z,98591.00
2023-05-10T04:41:07.317Z,98591.00
2023-05-10T04:42:07.363Z,98592.00
2023-05-10T04:43:07.373Z,98592.00
2023-05-10T04:44:07.400Z,98592.00
2023-05-10T04:45:07.437Z,98593.00
2023-05-10T04:46:07.517Z,98592.00
2023-05-10T04:47:07.901Z,98594.00
2023-05-10T04:48:07.482Z,98594.00
2023-05-10T04:49:07.462Z,98591.00
2023-05-10T04:50:07.467Z,98598.00
2023-05-10T04:51:07.533Z,98596.00
2023-05-10T04:52:07.486Z,98597.00
2023-05-10T04:53:07.529Z,98598.00
2023-05-10T04:54:07.540Z,98597.00
2023-05-10T04:55:07.501Z,98598.00
2023-05-10T04:56:07.532Z,98605.00
2023-05-10T04:57:07.559Z,98596.00
2023-05-10T04:58:07.622Z,98601.00
2023-05-10T04:59:07.580Z,98604.00
2023-05-10T05:00:07.608Z,98604.00
2023-05-10T05:02:33.648Z,98605.00
2023-05-10T05:03:33.699Z,98608.00
2023-05-10T05:04:33.562Z,98611.00
2023-05-10T05:05:33.585Z,98607.00
2023-05-10T05:06:33.599Z,98607.00
2023-05-10T05:07:33.638Z,98608.00
2023-05-10T05:08:33.635Z,98611.00
2023-05-10T05:09:33.686Z,98612.00
2023-05-10T05:10:33.687Z,98611.00
2023-05-10T05:11:33.726Z,98610.00
2023-05-10T05:12:33.743Z,98612.00
2023-05-10T05:13:33.747Z,98615.00
2023-05-10T05:14:33.751Z,98621.00
2023-05-10T05:15:33.766Z,98618.00
2023-05-10T05:16:33.826Z,98619.00
2023-05-10T05:17:33.832Z,98619.00
2023-05-10T05:18:33.832Z,98621.00
2023-05-10T05:19:33.867Z,98619.00
2023-05-10T05:20:33.874Z,98620.00
2023-05-10T05:21:33.922Z,98624.00
2023-05-10T05:22:33.894Z,98623.00
2023-05-10T05:23:33.903Z,98625.00
2023-05-10T05:24:33.910Z,98623.00
2023-05-10T05:25:33.952Z,98626.00
2023-05-10T05:26:33.967Z,98632.00
2023-05-10T05:27:33.950Z,98628.00
2023-05-10T05:28:33.972Z,98629.00
2023-05-10T05:29:34.007Z,98635.00
2023-05-10T05:30:34.022Z,98634.00
2023-05-10T05:31:34.071Z,98635.00
2023-05-10T05:32:34.061Z,98630.00
2023-05-10T05:33:34.016Z,98635.00
2023-05-10T05:34:34.048Z,98630.00
2023-05-10T05:35:34.067Z,98633.00
2023-05-10T05:36:34.939Z,98634.00
2023-05-10T05:37:34.030Z,98633.00
2023-05-10T05:38:34.054Z,98634.00
2023-05-10T05:39:34.091Z,98634.00
2023-05-10T05:40:34.108Z,98629.00
2023-05-10T05:41:34.161Z,98630.00
2023-05-10T05:42:34.185Z,98630.00
2023-05-10T05:43:36.052Z,98633.00
2023-05-10T05:44:34.181Z,98635.00
2023-05-10T05:45:34.254Z,98637.00
2023-05-10T05:46:34.237Z,98636.00
2023-05-10T05:47:34.270Z,98634.00
2023-05-10T05:48:34.287Z,98634.00
2023-05-10T05:49:34.303Z,98637.00
2023-05-10T05:50:34.310Z,98639.00
2023-05-10T05:51:34.352Z,98640.00
2023-05-10T05:52:34.371Z,98641.00
2023-05-10T05:53:34.360Z,98643.00
2023-05-10T05:54:34.389Z,98638.00
2023-05-10T05:55:34.412Z,98639.00
2023-05-10T05:56:34.447Z,98640.00
2023-05-10T05:57:34.485Z,98647.00
2023-05-10T05:58:34.471Z,98646.00
2023-05-10T05:59:34.452Z,98644.00
2023-05-10T06:00:34.470Z,98644.00
2023-05-10T06:01:34.506Z,98636.00
2023-05-10T06:02:34.620Z,98650.00
2023-05-10T06:03:34.640Z,98645.00
2023-05-10T06:04:34.524Z,98647.00
2023-05-10T06:05:34.505Z,98649.00
2023-05-10T06:06:34.534Z,98654.00
2023-05-10T06:07:34.538Z,98653.00
2023-05-10T06:08:34.507Z,98653.00
2023-05-10T06:09:34.522Z,98653.00
2023-05-10T06:10:34.533Z,98656.00
2023-05-10T06:11:34.608Z,98656.00
2023-05-10T06:12:34.582Z,98661.00
2023-05-10T06:13:34.796Z,98661.00
2023-05-10T06:14:34.629Z,98660.00
2023-05-10T06:15:34.657Z,98657.00
2023-05-10T06:16:34.722Z,98666.00
2023-05-10T06:17:34.712Z,98663.00
2023-05-10T06:18:34.696Z,98661.00
2023-05-10T06:19:34.680Z,98665.00
2023-05-10T06:20:34.733Z,98660.00
2023-05-10T06:21:34.752Z,98662.00
2023-05-10T06:22:34.735Z,98662.00
2023-05-10T06:23:34.772Z,98665.00
2023-05-10T06:24:34.764Z,98663.00
2023-05-10T06:25:34.794Z,98667.00
2023-05-10T06:26:34.792Z,98665.00
2023-05-10T06:27:34.808Z,98662.00
2023-05-10T06:28:34.836Z,98666.00
2023-05-10T06:29:34.924Z,98669.00
2023-05-10T06:30:34.868Z,98665.00
2023-05-10T06:31:34.884Z,98671.00
2023-05-10T06:32:34.963Z,98669.00
2023-05-10T06:33:35.190Z,98667.00
2023-05-10T06:34:34.924Z,98670.00
2023-05-10T06:35:34.899Z,98666.00
2023-05-10T06:36:34.923Z,98663.00
2023-05-10T06:37:34.942Z,98664.00
2023-05-10T06:38:34.967Z,98663.00
2023-05-10T06:39:35.022Z,98656.00
2023-05-10T06:40:34.992Z,98665.00
2023-05-10T06:41:35.060Z,98661.00
2023-05-10T06:42:35.029Z,98671.00
2023-05-10T06:43:35.059Z,98662.00
2023-05-10T06:44:35.083Z,98667.00
2023-05-10T06:45:35.087Z,98672.00
2023-05-10T06:46:35.102Z,98671.00
2023-05-10T06:47:37.964Z,98680.00
2023-05-10T06:48:35.084Z,98676.00
2023-05-10T06:49:35.071Z,98673.00
2023-05-10T06:50:35.095Z,98677.00
2023-05-10T06:51:35.122Z,98680.00
2023-05-10T06:52:35.148Z,98676.00
2023-05-10T06:53:35.179Z,98678.00
2023-05-10T06:54:35.199Z,98679.00
2023-05-10T06:55:35.191Z,98677.00
2023-05-10T06:56:35.241Z,98684.00
2023-05-10T06:57:35.230Z,98678.00
2023-05-10T06:58:35.220Z,98682.00
2023-05-10T06:59:35.323Z,98683.00
2023-05-10T07:00:35.293Z,98674.00
2023-05-10T07:01:35.402Z,98673.00
2023-05-10T07:02:35.281Z,98676.00
2023-05-10T07:03:35.252Z,98681.00
2023-05-10T07:04:35.336Z,98679.00
2023-05-10T07:05:35.746Z,98684.00
2023-05-10T07:06:35.291Z,98680.00
2023-05-10T07:07:35.321Z,98676.00
2023-05-10T07:08:35.344Z,98676.00
2023-05-10T07:09:35.357Z,98692.00
2023-05-10T07:10:35.378Z,98681.00
2023-05-10T07:11:35.382Z,98676.00
2023-05-10T07:12:35.415Z,98682.00
2023-05-10T07:13:35.443Z,98684.00
2023-05-10T07:14:35.450Z,98689.00
2023-05-10T07:15:35.486Z,98685.00
2023-05-10T07:16:35.579Z,98689.00
2023-05-10T07:17:35.708Z,98681.00
2023-05-10T07:18:35.488Z,98687.00
2023-05-10T07:19:35.492Z,98684.00
2023-05-10T07:20:35.533Z,98686.00
2023-05-10T07:21:35.573Z,98685.00
2023-05-10T07:22:35.555Z,98691.00
2023-05-10T07:23:35.587Z,98687.00
2023-05-10T07:24:35.593Z,98691.00
2023-05-10T07:25:35.630Z,98692.00
2023-05-10T07:26:35.600Z,98688.00
2023-05-10T07:27:35.649Z,98692.00
2023-05-10T07:28:35.655Z,98690.00
2023-05-10T07:29:35.683Z,98699.00
2023-05-10T07:30:35.755Z,98697.00
2023-05-10T07:31:35.735Z,98696.00
2023-05-10T07:32:35.806Z,98699.00
2023-05-10T07:33:35.804Z,98693.00
2023-05-10T07:34:35.785Z,98688.00
2023-05-10T07:35:35.775Z,98694.00
2023-05-10T07:36:35.798Z,98695.00
2023-05-10T07:37:35.818Z,98693.00
2023-05-10T07:38:35.825Z,98694.00
2023-05-10T07:39:35.847Z,98699.00
2023-05-10T07:40:35.889Z,98704.00
2023-05-10T07:41:36.231Z,98708.00
2023-05-10T07:42:35.936Z,98699.00
2023-05-10T07:43:35.913Z,98703.00
2023-05-10T07:44:35.937Z,98704.00
2023-05-10T07:45:35.981Z,98700.00
2023-05-10T07:46:35.990Z,98699.00
2023-05-10T07:47:36.047Z,98701.00
2023-05-10T07:48:35.991Z,98700.00
2023-05-10T07:49:36.003Z,98699.00
2023-05-10T07:50:36.011Z,98698.00
2023-05-10T07:51:36.037Z,98704.00
2023-05-10T07:52:36.079Z,98703.00
2023-05-10T07:53:36.062Z,98704.00
2023-05-10T07:54:36.092Z,98707.00
2023-05-10T07:55:36.131Z,98702.00
2023-05-10T07:56:36.152Z,98706.00
2023-05-10T07:57:36.194Z,98709.00
2023-05-10T07:58:36.179Z,98711.00
2023-05-10T07:59:36.170Z,98712.00
2023-05-10T08:00:36.190Z,98708.00
2023-05-10T08:01:36.205Z,98710.00
2023-05-10T08:02:36.404Z,98710.00
2023-05-10T08:03:36.294Z,98708.00
2023-05-10T08:04:36.242Z,98716.00
2023-05-10T08:05:36.385Z,98723.00
2023-05-10T08:06:36.310Z,98717.00
2023-05-10T08:07:36.241Z,98713.00
2023-05-10T08:08:36.280Z,98724.00
2023-05-10T08:09:36.276Z,98716.00
2023-05-10T08:10:36.289Z,98721.00
2023-05-10T08:11:36.338Z,98722.00
2023-05-10T08:12:36.360Z,98726.00
2023-05-10T08:13:36.761Z,98731.00
2023-05-10T08:14:36.363Z,98725.00
2023-05-10T08:15:36.420Z,98728.00
2023-05-10T08:16:36.454Z,98728.00
2023-05-10T08:17:36.439Z,98728.00
2023-05-10T08:18:36.484Z,98728.00
2023-05-10T08:19:36.439Z,98730.00
2023-05-10T08:20:36.473Z,98730.00
2023-05-10T08:21:36.469Z,98734.00
2023-05-10T08:22:36.479Z,98738.00
2023-05-10T08:23:36.498Z,98732.00
2023-05-10T08:24:36.505Z,98740.00
2023-05-10T08:25:36.492Z,98733.00
2023-05-10T08:26:36.507Z,98740.00
2023-05-10T08:27:36.513Z,98739.00
2023-05-10T08:28:36.567Z,98743.00
2023-05-10T08:29:48.962Z,98744.00
2023-05-10T08:30:36.567Z,98742.00
2023-05-10T08:31:36.627Z,98735.00
2023-05-10T08:32:36.659Z,98738.00
2023-05-10T08:33:36.574Z,98734.00
2023-05-10T08:34:36.610Z,98735.00
2023-05-10T08:35:36.624Z,98731.00
2023-05-10T08:36:36.637Z,98735.00
2023-05-10T08:37:36.702Z,98732.00
2023-05-10T08:38:36.665Z,98738.00
2023-05-10T08:39:36.674Z,98732.00
2023-05-10T08:40:36.706Z,98731.00
2023-05-10T08:41:36.728Z,98736.00
2023-05-10T08:42:36.769Z,98735.00
2023-05-10T08:43:36.784Z,98731.00
2023-05-10T08:44:36.803Z,98732.00
2023-05-10T08:45:36.871Z,98733.00
2023-05-10T08:46:36.826Z,98736.00
2023-05-10T08:47:36.911Z,98743.00
2023-05-10T08:48:36.850Z,98743.00
2023-05-10T08:49:36.871Z,98747.00
2023-05-10T08:50:36.915Z,98742.00
2023-05-10T08:51:36.898Z,98747.00
2023-05-10T08:52:36.920Z,98748.00
2023-05-10T08:53:36.954Z,98746.00
2023-05-10T08:54:36.965Z,98749.00
2023-05-10T08:55:36.987Z,98745.00
2023-05-10T08:56:36.999Z,98745.00
2023-05-10T08:57:37.031Z,98746.00
2023-05-10T08:58:37.022Z,98749.00
2023-05-10T08:59:37.045Z,98748.00
2023-05-10T09:00:37.142Z,98750.00
2023-05-10T09:01:37.076Z,98748.00
2023-05-10T09:02:37.121Z,98752.00
2023-05-10T09:03:37.244Z,98750.00
2023-05-10T09:04:37.359Z,98748.00
2023-05-10T09:05:37.156Z,98752.00
2023-05-10T09:06:37.305Z,98747.00
2023-05-10T09:07:37.222Z,98754.00
2023-05-10T09:08:37.243Z,98753.00
2023-05-10T09:09:37.282Z,98752.00
2023-05-10T09:10:37.253Z,98758.00
2023-05-10T09:11:37.273Z,98754.00
2023-05-10T09:12:37.293Z,98759.00
2023-05-10T09:13:37.306Z,98758.00
2023-05-10T09:14:37.745Z,98768.00
2023-05-10T09:15:37.365Z,98767.00
2023-05-10T09:16:37.437Z,98766.00
2023-05-10T09:17:37.433Z,98767.00
2023-05-10T09:18:37.412Z,98770.00
2023-05-10T09:19:37.423Z,98769.00
2023-05-10T09:20:37.416Z,98776.00
2023-05-10T09:21:37.427Z,98769.00
2023-05-10T09:22:37.443Z,98773.00
2023-05-10T09:23:37.458Z,98773.00
2023-05-10T09:24:37.472Z,98776.00
2023-05-10T09:25:37.497Z,98776.00
2023-05-10T09:26:37.466Z,98767.00
2023-05-10T09:27:37.487Z,98772.00
2023-05-10T09:28:37.520Z,98772.00
2023-05-10T09:29:37.538Z,98778.00
2023-05-10T09:30:37.569Z,98778.00
2023-05-10T09:31:37.533Z,98773.00
2023-05-10T09:32:37.604Z,98776.00
2023-05-10T09:33:37.614Z,98777.00
2023-05-10T09:34:37.592Z,98778.00
2023-05-10T09:35:37.615Z,98781.00
2023-05-10T09:36:37.637Z,98784.00
2023-05-10T09:37:37.611Z,98776.00
2023-05-10T09:38:37.636Z,98783.00
2023-05-10T09:39:37.650Z,98774.00
2023-05-10T09:40:37.672Z,98782.00
2023-05-10T09:41:37.683Z,98782.00
2023-05-10T09:42:37.664Z,98780.00
2023-05-10T09:43:37.678Z,98780.00
2023-05-10T09:44:37.693Z,98773.00
2023-05-10T09:45:39.150Z,98775.00
2023-05-10T09:46:37.813Z,98778.00
2023-05-10T09:47:37.784Z,98779.00
2023-05-10T09:48:37.768Z,98776.00
2023-05-10T09:49:37.824Z,98776.00
2023-05-10T09:50:37.806Z,98779.00
2023-05-10T09:51:37.816Z,98775.00
2023-05-10T09:52:37.846Z,98774.00
2023-05-10T09:53:37.880Z,98770.00
2023-05-10T09:54:37.910Z,98772.00
2023-05-10T09:55:37.940Z,98772.00
2023-05-10T09:56:37.991Z,98770.00
2023-05-10T09:57:37.946Z,98768.00
2023-05-10T09:58:37.919Z,98771.00
2023-05-10T09:59:37.980Z,98764.00
2023-05-10T10:00:37.996Z,98770.00
2023-05-10T10:01:38.059Z,98770.00
2023-05-10T10:02:38.077Z,98767.00
2023-05-10T10:03:38.030Z,98761.00
2023-05-10T10:04:38.072Z,98760.00
2023-05-10T10:05:38.069Z,98765.00
2023-05-10T10:06:38.061Z,98764.00
2023-05-10T10:07:38.069Z,98762.00
2023-05-10T10:08:38.085Z,98763.00
2023-05-10T10:09:38.109Z,98761.00
2023-05-10T10:10:38.155Z,98765.00
2023-05-10T10:11:38.182Z,98766.00
2023-05-10T10:12:38.137Z,98761.00
2023-05-10T10:13:38.169Z,98762.00
2023-05-10T10:14:38.175Z,98758.00
2023-05-10T10:15:38.625Z,98754.00
2023-05-10T10:16:45.818Z,98762.00
2023-05-10T10:17:38.259Z,98761.00
2023-05-10T10:18:38.279Z,98758.00
2023-05-10T10:19:38.474Z,98762.00
2023-05-10T10:20:38.289Z,98758.00
2023-05-10T10:21:38.248Z,98760.00
2023-05-10T10:22:38.274Z,98766.00
2023-05-10T10:23:38.300Z,98757.00
2023-05-10T10:24:38.331Z,98758.00
2023-05-10T10:25:38.352Z,98765.00
2023-05-10T10:26:38.359Z,98760.00
2023-05-10T10:27:38.382Z,98761.00
2023-05-10T10:28:38.387Z,98759.00
2023-05-10T10:29:38.423Z,98759.00
2023-05-10T10:30:38.436Z,98758.00
2023-05-10T10:31:38.493Z,98764.00
2023-05-10T10:32:38.520Z,98764.00
2023-05-10T10:33:38.521Z,98766.00
2023-05-10T10:34:38.496Z,98764.00
2023-05-10T10:35:38.514Z,98758.00
2023-05-10T10:36:38.538Z,98765.00
2023-05-10T10:37:38.513Z,98759.00
2023-05-10T10:38:38.545Z,98763.00
2023-05-10T10:39:38.538Z,98760.00
2023-05-10T10:40:38.560Z,98762.00
2023-05-10T10:41:38.597Z,98763.00
2023-05-10T10:42:38.612Z,98762.00
2023-05-10T10:43:38.649Z,98764.00
2023-05-10T10:44:38.664Z,98769.00
2023-05-10T10:45:40.194Z,98763.00
2023-05-10T10:46:38.766Z,98770.00
2023-05-10T10:47:38.761Z,98766.00
2023-05-10T10:48:38.736Z,98769.00
2023-05-10T10:49:38.778Z,98766.00
2023-05-10T10:50:38.753Z,98766.00
2023-05-10T10:51:38.784Z,98769.00
2023-05-10T10:52:38.771Z,98767.00
2023-05-10T10:53:38.788Z,98765.00
2023-05-10T10:54:38.798Z,98771.00
2023-05-10T10:55:38.824Z,98765.00
2023-05-10T10:56:39.313Z,98759.00
2023-05-10T10:57:38.871Z,98766.00
2023-05-10T10:58:38.911Z,98763.00
2023-05-10T10:59:38.936Z,98765.00
2023-05-10T11:00:39.065Z,98764.00
2023-05-10T11:01:39.068Z,98759.00
2023-05-10T11:02:39.012Z,98758.00
2023-05-10T11:03:39.028Z,98758.00
2023-05-10T11:04:39.088Z,98759.00
2023-05-10T11:05:39.122Z,98759.00
2023-05-10T11:06:39.098Z,98754.00
2023-05-10T11:07:39.126Z,98755.00
2023-05-10T11:08:39.149Z,98756.00
2023-05-10T11:09:39.196Z,98753.00
2023-05-10T11:10:39.197Z,98757.00
2023-05-10T11:11:39.208Z,98764.00
2023-05-10T11:12:39.222Z,98752.00
2023-05-10T11:13:39.259Z,98749.00
2023-05-10T11:14:39.287Z,98745.00
2023-05-10T11:15:39.295Z,98755.00
2023-05-10T11:16:39.346Z,98761.00
2023-05-10T11:17:39.398Z,98757.00
2023-05-10T11:18:39.377Z,98758.00
2023-05-10T11:19:39.368Z,98765.00
2023-05-10T11:20:39.358Z,98756.00
2023-05-10T11:21:39.362Z,98760.00
2023-05-10T11:22:39.392Z,98758.00
2023-05-10T11:23:39.399Z,98759.00
2023-05-10T11:24:39.422Z,98759.00
2023-05-10T11:25:39.467Z,98753.00
2023-05-10T11:26:39.452Z,98762.00
2023-05-10T11:27:39.477Z,98759.00
2023-05-10T11:28:39.486Z,98756.00
2023-05-10T11:29:39.498Z,98755.00
2023-05-10T11:30:39.549Z,98751.00
2023-05-10T11:31:39.508Z,98751.00
2023-05-10T11:32:39.581Z,98753.00
2023-05-10T11:33:39.563Z,98755.00
2023-05-10T11:34:39.544Z,98754.00
2023-05-10T11:35:41.746Z,98759.00
2023-05-10T11:36:39.546Z,98751.00
2023-05-10T11:37:39.565Z,98760.00
2023-05-10T11:38:39.597Z,98771.00
2023-05-10T11:39:39.625Z,98764.00
2023-05-10T11:40:39.608Z,98763.00
2023-05-10T11:41:41.059Z,98772.00
2023-05-10T11:42:39.670Z,98768.00
2023-05-10T11:43:39.680Z,98770.00
2023-05-10T11:44:39.697Z,98765.00
2023-05-10T11:45:39.718Z,98771.00